sensor_id;sensor_type;location;lat;lon;timestamp;P1;durP1;ratioP1;P2;durP2;ratioP2
56752;SDS011;42627;42.646;23.642;2023-02-01T00:00:22;7.30;;;2.53;;
56752;SDS011;42627;42.646;23.642;2023-02-01T00:02:23;5.40;;;3.08;;
56752;SDS011;42627;42.646;23.642;2023-02-01T00:04:24;5.05;;;2.67;;
56752;SDS011;42627;42.646;23.642;2023-02-01T00:06:25;9.07;;;2.63;;
56752;SDS011;42627;42.646;23.642;2023-02-01T00:08:26;5.45;;;2.42;;
56752;SDS011;42627;42.646;23.642;2023-02-01T00:10:27;14.73;;;3.78;;
56752;SDS011;42627;42.646;23.642;2023-02-01T00:12:37;5.93;;;3.53;;
56752;SDS011;42627;42.646;23.642;2023-02-01T00:14:39;3.72;;;2.47;;
56752;SDS011;42627;42.646;23.642;2023-02-01T00:16:40;8.38;;;3.67;;
56752;SDS011;42627;42.646;23.642;2023-02-01T00:18:41;4.72;;;2.70;;
56752;SDS011;42627;42.646;23.642;2023-02-01T00:20:45;3.90;;;2.08;;
56752;SDS011;42627;42.646;23.642;2023-02-01T00:22:46;3.88;;;3.10;;
56752;SDS011;42627;42.646;23.642;2023-02-01T00:24:47;10.70;;;2.92;;
56752;SDS011;42627;42.646;23.642;2023-02-01T00:26:48;5.55;;;4.05;;
56752;SDS011;42627;42.646;23.642;2023-02-01T00:28:49;8.32;;;3.80;;
56752;SDS011;42627;42.646;23.642;2023-02-01T00:31:02;6.05;;;3.67;;
56752;SDS011;42627;42.646;23.642;2023-02-01T00:33:04;6.30;;;2.80;;
56752;SDS011;42627;42.646;23.642;2023-02-01T00:35:05;8.40;;;4.75;;
56752;SDS011;42627;42.646;23.642;2023-02-01T00:37:08;5.68;;;3.05;;
56752;SDS011;42627;42.646;23.642;2023-02-01T00:39:09;6.95;;;3.42;;
56752;SDS011;42627;42.646;23.642;2023-02-01T00:41:14;6.57;;;2.97;;
56752;SDS011;42627;42.646;23.642;2023-02-01T00:43:16;4.95;;;3.03;;
56752;SDS011;42627;42.646;23.642;2023-02-01T00:45:20;5.00;;;3.17;;
56752;SDS011;42627;42.646;23.642;2023-02-01T00:47:21;6.85;;;3.85;;
56752;SDS011;42627;42.646;23.642;2023-02-01T00:49:22;8.13;;;3.63;;
56752;SDS011;42627;42.646;23.642;2023-02-01T00:51:25;8.20;;;3.38;;
56752;SDS011;42627;42.646;23.642;2023-02-01T00:53:26;7.38;;;3.80;;
56752;SDS011;42627;42.646;23.642;2023-02-01T00:55:27;5.32;;;2.67;;
56752;SDS011;42627;42.646;23.642;2023-02-01T00:57:28;7.00;;;3.15;;
56752;SDS011;42627;42.646;23.642;2023-02-01T00:59:30;10.73;;;4.28;;
56752;SDS011;42627;42.646;23.642;2023-02-01T01:01:31;6.47;;;3.75;;
56752;SDS011;42627;42.646;23.642;2023-02-01T01:03:34;8.07;;;3.42;;
56752;SDS011;42627;42.646;23.642;2023-02-01T01:05:35;7.05;;;3.08;;
56752;SDS011;42627;42.646;23.642;2023-02-01T01:07:36;6.93;;;2.55;;
56752;SDS011;42627;42.646;23.642;2023-02-01T01:09:37;7.25;;;3.25;;
56752;SDS011;42627;42.646;23.642;2023-02-01T01:11:38;6.07;;;3.15;;
56752;SDS011;42627;42.646;23.642;2023-02-01T01:13:40;5.88;;;3.80;;
56752;SDS011;42627;42.646;23.642;2023-02-01T01:15:44;7.22;;;3.53;;
56752;SDS011;42627;42.646;23.642;2023-02-01T01:17:45;7.45;;;4.93;;
56752;SDS011;42627;42.646;23.642;2023-02-01T01:19:46;6.95;;;3.80;;
56752;SDS011;42627;42.646;23.642;2023-02-01T01:21:47;7.75;;;3.72;;
56752;SDS011;42627;42.646;23.642;2023-02-01T01:23:48;10.32;;;4.55;;
56752;SDS011;42627;42.646;23.642;2023-02-01T01:25:49;10.65;;;3.25;;
56752;SDS011;42627;42.646;23.642;2023-02-01T01:27:50;9.25;;;4.10;;
56752;SDS011;42627;42.646;23.642;2023-02-01T01:29:51;6.30;;;3.38;;
56752;SDS011;42627;42.646;23.642;2023-02-01T01:31:52;7.60;;;3.22;;
56752;SDS011;42627;42.646;23.642;2023-02-01T01:33:54;5.72;;;3.13;;
56752;SDS011;42627;42.646;23.642;2023-02-01T01:35:55;7.30;;;3.22;;
56752;SDS011;42627;42.646;23.642;2023-02-01T01:37:56;3.90;;;2.38;;
56752;SDS011;42627;42.646;23.642;2023-02-01T01:39:57;11.07;;;4.25;;
56752;SDS011;42627;42.646;23.642;2023-02-01T01:41:59;7.53;;;2.58;;
56752;SDS011;42627;42.646;23.642;2023-02-01T01:44:03;7.45;;;3.97;;
56752;SDS011;42627;42.646;23.642;2023-02-01T01:46:04;6.78;;;3.22;;
56752;SDS011;42627;42.646;23.642;2023-02-01T01:48:07;3.20;;;2.47;;
56752;SDS011;42627;42.646;23.642;2023-02-01T01:50:10;5.15;;;3.15;;
56752;SDS011;42627;42.646;23.642;2023-02-01T01:52:12;6.07;;;2.97;;
56752;SDS011;42627;42.646;23.642;2023-02-01T01:54:16;4.90;;;2.67;;
56752;SDS011;42627;42.646;23.642;2023-02-01T01:56:17;5.70;;;2.08;;
56752;SDS011;42627;42.646;23.642;2023-02-01T01:58:19;4.28;;;3.20;;
56752;SDS011;42627;42.646;23.642;2023-02-01T02:00:26;5.22;;;3.83;;
56752;SDS011;42627;42.646;23.642;2023-02-01T02:02:30;6.82;;;2.78;;
56752;SDS011;42627;42.646;23.642;2023-02-01T02:04:32;8.73;;;3.88;;
56752;SDS011;42627;42.646;23.642;2023-02-01T02:06:42;5.28;;;3.47;;
56752;SDS011;42627;42.646;23.642;2023-02-01T02:08:45;6.18;;;2.70;;
56752;SDS011;42627;42.646;23.642;2023-02-01T02:10:50;5.90;;;3.22;;
56752;SDS011;42627;42.646;23.642;2023-02-01T02:13:00;3.40;;;2.05;;
56752;SDS011;42627;42.646;23.642;2023-02-01T02:15:01;3.30;;;2.20;;
56752;SDS011;42627;42.646;23.642;2023-02-01T02:17:12;5.35;;;2.92;;
56752;SDS011;42627;42.646;23.642;2023-02-01T02:32:28;12.48;;;3.95;;
56752;SDS011;42627;42.646;23.642;2023-02-01T02:34:38;3.83;;;1.80;;
56752;SDS011;42627;42.646;23.642;2023-02-01T02:36:59;2.75;;;1.92;;
56752;SDS011;42627;42.646;23.642;2023-02-01T02:39:04;3.58;;;2.58;;
56752;SDS011;42627;42.646;23.642;2023-02-01T02:41:24;12.63;;;2.72;;
56752;SDS011;42627;42.646;23.642;2023-02-01T02:43:48;3.95;;;2.17;;
56752;SDS011;42627;42.646;23.642;2023-02-01T02:53:30;6.68;;;2.45;;
56752;SDS011;42627;42.646;23.642;2023-02-01T02:55:51;3.63;;;2.28;;
56752;SDS011;42627;42.646;23.642;2023-02-01T02:58:12;3.25;;;2.45;;
56752;SDS011;42627;42.646;23.642;2023-02-01T03:00:36;4.43;;;2.70;;
56752;SDS011;42627;42.646;23.642;2023-02-01T03:02:56;5.18;;;2.85;;
56752;SDS011;42627;42.646;23.642;2023-02-01T03:05:15;3.13;;;2.00;;
56752;SDS011;42627;42.646;23.642;2023-02-01T03:09:54;4.18;;;2.22;;
56752;SDS011;42627;42.646;23.642;2023-02-01T03:11:56;3.40;;;2.63;;
56752;SDS011;42627;42.646;23.642;2023-02-01T03:14:20;7.28;;;1.88;;
56752;SDS011;42627;42.646;23.642;2023-02-01T03:18:30;1.98;;;1.58;;
56752;SDS011;42627;42.646;23.642;2023-02-01T03:20:33;3.38;;;2.33;;
56752;SDS011;42627;42.646;23.642;2023-02-01T03:22:35;5.28;;;2.42;;
56752;SDS011;42627;42.646;23.642;2023-02-01T03:26:39;3.90;;;2.13;;
56752;SDS011;42627;42.646;23.642;2023-02-01T03:28:43;6.15;;;3.80;;
56752;SDS011;42627;42.646;23.642;2023-02-01T03:30:46;4.75;;;2.80;;
56752;SDS011;42627;42.646;23.642;2023-02-01T03:32:50;7.95;;;2.58;;
56752;SDS011;42627;42.646;23.642;2023-02-01T03:35:01;3.67;;;2.17;;
56752;SDS011;42627;42.646;23.642;2023-02-01T03:37:06;5.03;;;1.73;;
56752;SDS011;42627;42.646;23.642;2023-02-01T03:39:20;2.92;;;1.70;;
56752;SDS011;42627;42.646;23.642;2023-02-01T03:41:46;3.17;;;2.30;;
56752;SDS011;42627;42.646;23.642;2023-02-01T03:45:59;2.63;;;1.55;;
56752;SDS011;42627;42.646;23.642;2023-02-01T03:48:00;3.67;;;2.20;;
56752;SDS011;42627;42.646;23.642;2023-02-01T03:50:07;5.00;;;2.88;;
56752;SDS011;42627;42.646;23.642;2023-02-01T03:52:13;1.90;;;1.55;;
56752;SDS011;42627;42.646;23.642;2023-02-01T03:54:15;2.60;;;1.98;;
56752;SDS011;42627;42.646;23.642;2023-02-01T03:56:18;2.47;;;2.15;;
56752;SDS011;42627;42.646;23.642;2023-02-01T03:58:22;2.72;;;1.73;;
56752;SDS011;42627;42.646;23.642;2023-02-01T04:00:24;3.53;;;2.17;;
56752;SDS011;42627;42.646;23.642;2023-02-01T04:02:25;4.05;;;2.20;;
56752;SDS011;42627;42.646;23.642;2023-02-01T04:04:26;14.75;;;3.05;;
56752;SDS011;42627;42.646;23.642;2023-02-01T04:06:27;5.00;;;3.03;;
56752;SDS011;42627;42.646;23.642;2023-02-01T04:08:28;6.95;;;3.10;;
56752;SDS011;42627;42.646;23.642;2023-02-01T04:10:34;2.78;;;1.83;;
56752;SDS011;42627;42.646;23.642;2023-02-01T04:12:39;4.75;;;2.85;;
56752;SDS011;42627;42.646;23.642;2023-02-01T04:14:40;4.75;;;2.45;;
56752;SDS011;42627;42.646;23.642;2023-02-01T04:16:41;4.07;;;2.95;;
56752;SDS011;42627;42.646;23.642;2023-02-01T04:18:42;13.00;;;4.70;;
56752;SDS011;42627;42.646;23.642;2023-02-01T04:20:43;4.97;;;2.92;;
56752;SDS011;42627;42.646;23.642;2023-02-01T04:22:45;4.63;;;2.88;;
56752;SDS011;42627;42.646;23.642;2023-02-01T04:24:46;4.40;;;2.33;;
56752;SDS011;42627;42.646;23.642;2023-02-01T04:26:47;5.43;;;2.38;;
56752;SDS011;42627;42.646;23.642;2023-02-01T04:28:48;12.43;;;4.43;;
56752;SDS011;42627;42.646;23.642;2023-02-01T04:30:49;12.40;;;4.38;;
56752;SDS011;42627;42.646;23.642;2023-02-01T04:32:50;10.77;;;5.28;;
56752;SDS011;42627;42.646;23.642;2023-02-01T04:34:51;9.07;;;4.22;;
56752;SDS011;42627;42.646;23.642;2023-02-01T04:36:52;15.88;;;5.80;;
56752;SDS011;42627;42.646;23.642;2023-02-01T04:38:53;16.42;;;7.10;;
56752;SDS011;42627;42.646;23.642;2023-02-01T04:40:54;16.10;;;5.85;;
56752;SDS011;42627;42.646;23.642;2023-02-01T04:42:55;17.35;;;5.25;;
56752;SDS011;42627;42.646;23.642;2023-02-01T04:44:56;28.95;;;11.13;;
56752;SDS011;42627;42.646;23.642;2023-02-01T04:46:57;13.75;;;4.45;;
56752;SDS011;42627;42.646;23.642;2023-02-01T04:48:58;34.13;;;11.82;;
56752;SDS011;42627;42.646;23.642;2023-02-01T04:50:59;54.00;;;13.13;;
56752;SDS011;42627;42.646;23.642;2023-02-01T04:53:00;23.20;;;10.95;;
56752;SDS011;42627;42.646;23.642;2023-02-01T04:55:01;14.43;;;8.57;;
56752;SDS011;42627;42.646;23.642;2023-02-01T04:57:02;8.93;;;5.80;;
56752;SDS011;42627;42.646;23.642;2023-02-01T04:59:04;7.75;;;4.07;;
56752;SDS011;42627;42.646;23.642;2023-02-01T05:01:05;6.18;;;3.13;;
56752;SDS011;42627;42.646;23.642;2023-02-01T05:03:06;4.82;;;2.88;;
56752;SDS011;42627;42.646;23.642;2023-02-01T05:05:07;5.93;;;3.03;;
56752;SDS011;42627;42.646;23.642;2023-02-01T05:07:09;3.45;;;1.95;;
56752;SDS011;42627;42.646;23.642;2023-02-01T05:09:10;3.30;;;2.67;;
56752;SDS011;42627;42.646;23.642;2023-02-01T05:11:13;3.63;;;2.25;;
56752;SDS011;42627;42.646;23.642;2023-02-01T05:13:34;3.03;;;1.98;;
56752;SDS011;42627;42.646;23.642;2023-02-01T05:15:51;5.40;;;2.83;;
56752;SDS011;42627;42.646;23.642;2023-02-01T05:17:52;5.07;;;2.63;;
56752;SDS011;42627;42.646;23.642;2023-02-01T05:19:53;4.82;;;1.77;;
56752;SDS011;42627;42.646;23.642;2023-02-01T05:21:54;5.47;;;2.55;;
56752;SDS011;42627;42.646;23.642;2023-02-01T05:23:55;3.35;;;2.17;;
56752;SDS011;42627;42.646;23.642;2023-02-01T05:26:12;4.60;;;2.45;;
56752;SDS011;42627;42.646;23.642;2023-02-01T05:28:16;4.38;;;2.90;;
56752;SDS011;42627;42.646;23.642;2023-02-01T05:30:17;9.43;;;2.35;;
56752;SDS011;42627;42.646;23.642;2023-02-01T05:32:18;3.47;;;1.63;;
56752;SDS011;42627;42.646;23.642;2023-02-01T05:34:23;7.85;;;2.60;;
56752;SDS011;42627;42.646;23.642;2023-02-01T05:36:24;8.18;;;3.33;;
56752;SDS011;42627;42.646;23.642;2023-02-01T05:38:25;6.60;;;3.40;;
56752;SDS011;42627;42.646;23.642;2023-02-01T05:40:27;3.72;;;2.72;;
56752;SDS011;42627;42.646;23.642;2023-02-01T05:42:33;5.18;;;3.03;;
56752;SDS011;42627;42.646;23.642;2023-02-01T05:44:35;2.90;;;2.00;;
56752;SDS011;42627;42.646;23.642;2023-02-01T05:46:38;6.90;;;2.55;;
56752;SDS011;42627;42.646;23.642;2023-02-01T05:48:40;2.08;;;1.92;;
56752;SDS011;42627;42.646;23.642;2023-02-01T05:50:41;3.60;;;1.77;;
56752;SDS011;42627;42.646;23.642;2023-02-01T05:52:42;6.30;;;3.50;;
56752;SDS011;42627;42.646;23.642;2023-02-01T05:54:46;4.65;;;2.40;;
56752;SDS011;42627;42.646;23.642;2023-02-01T05:56:47;5.60;;;2.70;;
56752;SDS011;42627;42.646;23.642;2023-02-01T05:58:48;5.20;;;2.33;;
56752;SDS011;42627;42.646;23.642;2023-02-01T06:00:49;5.65;;;4.13;;
56752;SDS011;42627;42.646;23.642;2023-02-01T06:02:50;7.90;;;2.95;;
56752;SDS011;42627;42.646;23.642;2023-02-01T06:04:51;6.82;;;2.88;;
56752;SDS011;42627;42.646;23.642;2023-02-01T06:06:55;7.57;;;3.58;;
56752;SDS011;42627;42.646;23.642;2023-02-01T06:08:56;9.95;;;2.35;;
56752;SDS011;42627;42.646;23.642;2023-02-01T06:11:01;5.35;;;3.78;;
56752;SDS011;42627;42.646;23.642;2023-02-01T06:13:02;13.95;;;4.55;;
56752;SDS011;42627;42.646;23.642;2023-02-01T06:15:04;14.65;;;4.85;;
56752;SDS011;42627;42.646;23.642;2023-02-01T06:17:07;29.30;;;7.78;;
56752;SDS011;42627;42.646;23.642;2023-02-01T06:19:09;8.65;;;3.97;;
56752;SDS011;42627;42.646;23.642;2023-02-01T06:21:10;18.67;;;4.13;;
56752;SDS011;42627;42.646;23.642;2023-02-01T06:23:13;9.25;;;2.70;;
56752;SDS011;42627;42.646;23.642;2023-02-01T06:25:14;4.95;;;2.67;;
56752;SDS011;42627;42.646;23.642;2023-02-01T06:27:16;8.73;;;3.55;;
56752;SDS011;42627;42.646;23.642;2023-02-01T06:29:17;4.43;;;2.92;;
56752;SDS011;42627;42.646;23.642;2023-02-01T06:31:18;6.18;;;2.92;;
56752;SDS011;42627;42.646;23.642;2023-02-01T06:33:19;4.97;;;3.28;;
56752;SDS011;42627;42.646;23.642;2023-02-01T06:35:21;7.60;;;3.20;;
56752;SDS011;42627;42.646;23.642;2023-02-01T06:37:22;5.43;;;2.65;;
56752;SDS011;42627;42.646;23.642;2023-02-01T06:39:24;16.92;;;3.95;;
56752;SDS011;42627;42.646;23.642;2023-02-01T06:41:27;5.68;;;3.75;;
56752;SDS011;42627;42.646;23.642;2023-02-01T06:43:28;5.70;;;3.53;;
56752;SDS011;42627;42.646;23.642;2023-02-01T06:45:31;4.90;;;2.92;;
56752;SDS011;42627;42.646;23.642;2023-02-01T06:47:32;5.75;;;3.38;;
56752;SDS011;42627;42.646;23.642;2023-02-01T06:49:35;6.00;;;2.58;;
56752;SDS011;42627;42.646;23.642;2023-02-01T06:51:37;8.57;;;3.38;;
56752;SDS011;42627;42.646;23.642;2023-02-01T06:53:41;5.57;;;2.53;;
56752;SDS011;42627;42.646;23.642;2023-02-01T06:55:50;5.07;;;2.55;;
56752;SDS011;42627;42.646;23.642;2023-02-01T06:57:54;6.60;;;3.42;;
56752;SDS011;42627;42.646;23.642;2023-02-01T06:59:55;4.50;;;2.55;;
56752;SDS011;42627;42.646;23.642;2023-02-01T07:01:57;13.60;;;4.93;;
56752;SDS011;42627;42.646;23.642;2023-02-01T07:04:01;17.10;;;7.80;;
56752;SDS011;42627;42.646;23.642;2023-02-01T07:06:02;6.80;;;3.95;;
56752;SDS011;42627;42.646;23.642;2023-02-01T07:08:04;3.40;;;2.38;;
56752;SDS011;42627;42.646;23.642;2023-02-01T07:10:05;4.00;;;2.83;;
56752;SDS011;42627;42.646;23.642;2023-02-01T07:12:06;5.10;;;3.05;;
56752;SDS011;42627;42.646;23.642;2023-02-01T07:14:07;5.88;;;3.17;;
56752;SDS011;42627;42.646;23.642;2023-02-01T07:16:09;12.35;;;4.63;;
56752;SDS011;42627;42.646;23.642;2023-02-01T07:18:13;8.70;;;4.07;;
56752;SDS011;42627;42.646;23.642;2023-02-01T07:20:14;7.05;;;3.35;;
56752;SDS011;42627;42.646;23.642;2023-02-01T07:22:16;10.35;;;4.47;;
56752;SDS011;42627;42.646;23.642;2023-02-01T07:24:17;9.57;;;4.50;;
56752;SDS011;42627;42.646;23.642;2023-02-01T07:26:18;8.70;;;3.90;;
56752;SDS011;42627;42.646;23.642;2023-02-01T07:28:19;4.88;;;2.30;;
56752;SDS011;42627;42.646;23.642;2023-02-01T07:30:21;6.47;;;2.97;;
56752;SDS011;42627;42.646;23.642;2023-02-01T07:32:22;6.00;;;2.80;;
56752;SDS011;42627;42.646;23.642;2023-02-01T07:34:24;4.40;;;2.40;;
56752;SDS011;42627;42.646;23.642;2023-02-01T07:36:25;3.45;;;2.00;;
56752;SDS011;42627;42.646;23.642;2023-02-01T07:38:26;3.42;;;2.78;;
56752;SDS011;42627;42.646;23.642;2023-02-01T07:40:32;3.17;;;2.42;;
56752;SDS011;42627;42.646;23.642;2023-02-01T07:42:34;4.45;;;2.50;;
56752;SDS011;42627;42.646;23.642;2023-02-01T07:44:37;8.75;;;3.83;;
56752;SDS011;42627;42.646;23.642;2023-02-01T07:46:38;11.98;;;3.22;;
56752;SDS011;42627;42.646;23.642;2023-02-01T07:48:39;8.35;;;3.10;;
56752;SDS011;42627;42.646;23.642;2023-02-01T07:50:40;4.90;;;2.65;;
56752;SDS011;42627;42.646;23.642;2023-02-01T07:52:41;8.43;;;4.00;;
56752;SDS011;42627;42.646;23.642;2023-02-01T07:54:45;10.40;;;3.72;;
56752;SDS011;42627;42.646;23.642;2023-02-01T07:56:46;3.38;;;2.13;;
56752;SDS011;42627;42.646;23.642;2023-02-01T07:58:47;7.68;;;3.53;;
56752;SDS011;42627;42.646;23.642;2023-02-01T08:00:49;5.85;;;2.55;;
56752;SDS011;42627;42.646;23.642;2023-02-01T08:03:10;9.73;;;4.28;;
56752;SDS011;42627;42.646;23.642;2023-02-01T08:05:11;4.28;;;3.10;;
56752;SDS011;42627;42.646;23.642;2023-02-01T08:07:12;5.70;;;2.70;;
56752;SDS011;42627;42.646;23.642;2023-02-01T08:09:13;6.82;;;2.58;;
56752;SDS011;42627;42.646;23.642;2023-02-01T08:11:14;7.38;;;3.42;;
56752;SDS011;42627;42.646;23.642;2023-02-01T08:13:16;14.48;;;3.40;;
56752;SDS011;42627;42.646;23.642;2023-02-01T08:15:17;5.22;;;3.05;;
56752;SDS011;42627;42.646;23.642;2023-02-01T08:17:19;9.88;;;5.03;;
56752;SDS011;42627;42.646;23.642;2023-02-01T08:19:21;12.57;;;4.95;;
56752;SDS011;42627;42.646;23.642;2023-02-01T08:21:23;10.70;;;3.15;;
56752;SDS011;42627;42.646;23.642;2023-02-01T08:23:25;9.18;;;4.10;;
56752;SDS011;42627;42.646;23.642;2023-02-01T08:25:26;6.03;;;4.25;;
56752;SDS011;42627;42.646;23.642;2023-02-01T08:27:29;12.02;;;5.22;;
56752;SDS011;42627;42.646;23.642;2023-02-01T08:29:35;7.50;;;3.65;;
56752;SDS011;42627;42.646;23.642;2023-02-01T08:31:37;7.30;;;4.75;;
56752;SDS011;42627;42.646;23.642;2023-02-01T08:33:40;8.80;;;4.13;;
56752;SDS011;42627;42.646;23.642;2023-02-01T08:35:42;7.20;;;3.50;;
56752;SDS011;42627;42.646;23.642;2023-02-01T08:37:43;12.00;;;6.32;;
56752;SDS011;42627;42.646;23.642;2023-02-01T08:39:44;9.30;;;3.50;;
56752;SDS011;42627;42.646;23.642;2023-02-01T08:41:46;8.50;;;4.70;;
56752;SDS011;42627;42.646;23.642;2023-02-01T08:44:07;8.35;;;4.93;;
56752;SDS011;42627;42.646;23.642;2023-02-01T08:46:08;6.97;;;2.45;;
56752;SDS011;42627;42.646;23.642;2023-02-01T08:48:10;3.05;;;1.73;;
56752;SDS011;42627;42.646;23.642;2023-02-01T08:50:11;10.30;;;2.80;;
56752;SDS011;42627;42.646;23.642;2023-02-01T08:52:12;4.70;;;2.33;;
56752;SDS011;42627;42.646;23.642;2023-02-01T08:54:13;5.13;;;2.95;;
56752;SDS011;42627;42.646;23.642;2023-02-01T08:56:15;4.05;;;1.88;;
56752;SDS011;42627;42.646;23.642;2023-02-01T08:58:22;4.30;;;2.13;;
56752;SDS011;42627;42.646;23.642;2023-02-01T09:00:31;4.07;;;2.78;;
56752;SDS011;42627;42.646;23.642;2023-02-01T09:02:37;5.03;;;2.58;;
56752;SDS011;42627;42.646;23.642;2023-02-01T09:04:38;3.95;;;2.42;;
56752;SDS011;42627;42.646;23.642;2023-02-01T09:06:40;3.83;;;2.85;;
56752;SDS011;42627;42.646;23.642;2023-02-01T09:08:41;4.00;;;2.28;;
56752;SDS011;42627;42.646;23.642;2023-02-01T09:10:43;8.88;;;2.50;;
56752;SDS011;42627;42.646;23.642;2023-02-01T09:12:44;4.65;;;3.15;;
56752;SDS011;42627;42.646;23.642;2023-02-01T09:14:45;4.75;;;1.83;;
56752;SDS011;42627;42.646;23.642;2023-02-01T09:16:55;5.20;;;2.25;;
56752;SDS011;42627;42.646;23.642;2023-02-01T09:18:56;4.47;;;2.38;;
56752;SDS011;42627;42.646;23.642;2023-02-01T09:20:57;5.50;;;3.28;;
56752;SDS011;42627;42.646;23.642;2023-02-01T09:22:58;3.05;;;1.52;;
56752;SDS011;42627;42.646;23.642;2023-02-01T09:25:00;5.63;;;2.60;;
56752;SDS011;42627;42.646;23.642;2023-02-01T09:27:03;4.72;;;2.30;;
56752;SDS011;42627;42.646;23.642;2023-02-01T09:29:32;5.70;;;2.33;;
56752;SDS011;42627;42.646;23.642;2023-02-01T09:31:43;4.88;;;2.75;;
56752;SDS011;42627;42.646;23.642;2023-02-01T09:35:48;8.85;;;4.75;;
56752;SDS011;42627;42.646;23.642;2023-02-01T09:37:49;12.30;;;4.57;;
56752;SDS011;42627;42.646;23.642;2023-02-01T09:39:50;7.93;;;3.95;;
56752;SDS011;42627;42.646;23.642;2023-02-01T09:46:37;7.88;;;3.38;;
56752;SDS011;42627;42.646;23.642;2023-02-01T09:48:39;13.20;;;3.58;;
56752;SDS011;42627;42.646;23.642;2023-02-01T09:50:47;7.47;;;3.75;;
56752;SDS011;42627;42.646;23.642;2023-02-01T09:52:55;6.40;;;2.70;;
56752;SDS011;42627;42.646;23.642;2023-02-01T09:55:01;9.60;;;4.07;;
56752;SDS011;42627;42.646;23.642;2023-02-01T09:57:21;7.72;;;3.88;;
56752;SDS011;42627;42.646;23.642;2023-02-01T10:02:38;10.25;;;3.92;;
56752;SDS011;42627;42.646;23.642;2023-02-01T10:04:39;9.85;;;3.42;;
56752;SDS011;42627;42.646;23.642;2023-02-01T10:06:45;9.35;;;3.13;;
56752;SDS011;42627;42.646;23.642;2023-02-01T10:10:50;4.03;;;3.40;;
56752;SDS011;42627;42.646;23.642;2023-02-01T10:21:54;5.60;;;2.40;;
56752;SDS011;42627;42.646;23.642;2023-02-01T10:24:07;3.63;;;1.85;;
56752;SDS011;42627;42.646;23.642;2023-02-01T10:28:37;7.20;;;2.03;;
56752;SDS011;42627;42.646;23.642;2023-02-01T10:30:46;5.82;;;2.08;;
56752;SDS011;42627;42.646;23.642;2023-02-01T10:32:48;8.40;;;2.78;;
56752;SDS011;42627;42.646;23.642;2023-02-01T10:35:00;2.67;;;1.13;;
56752;SDS011;42627;42.646;23.642;2023-02-01T10:39:03;4.53;;;1.98;;
56752;SDS011;42627;42.646;23.642;2023-02-01T10:41:15;4.32;;;1.80;;
56752;SDS011;42627;42.646;23.642;2023-02-01T10:43:16;5.30;;;1.83;;
56752;SDS011;42627;42.646;23.642;2023-02-01T10:45:20;6.35;;;1.83;;
56752;SDS011;42627;42.646;23.642;2023-02-01T10:47:22;5.38;;;1.60;;
56752;SDS011;42627;42.646;23.642;2023-02-01T10:49:38;5.47;;;2.75;;
56752;SDS011;42627;42.646;23.642;2023-02-01T10:53:58;7.35;;;3.10;;
56752;SDS011;42627;42.646;23.642;2023-02-01T10:56:09;22.17;;;13.75;;
56752;SDS011;42627;42.646;23.642;2023-02-01T11:00:47;5.68;;;2.70;;
56752;SDS011;42627;42.646;23.642;2023-02-01T11:02:48;4.10;;;1.75;;
56752;SDS011;42627;42.646;23.642;2023-02-01T11:04:50;9.05;;;1.92;;
56752;SDS011;42627;42.646;23.642;2023-02-01T11:07:03;3.70;;;1.70;;
56752;SDS011;42627;42.646;23.642;2023-02-01T11:11:08;2.35;;;1.75;;
56752;SDS011;42627;42.646;23.642;2023-02-01T11:13:14;2.78;;;1.50;;
56752;SDS011;42627;42.646;23.642;2023-02-01T11:15:22;6.28;;;2.30;;
56752;SDS011;42627;42.646;23.642;2023-02-01T11:17:25;2.38;;;1.40;;
56752;SDS011;42627;42.646;23.642;2023-02-01T11:19:28;3.90;;;1.42;;
56752;SDS011;42627;42.646;23.642;2023-02-01T11:21:29;3.42;;;1.48;;
56752;SDS011;42627;42.646;23.642;2023-02-01T11:23:30;5.38;;;1.92;;
56752;SDS011;42627;42.646;23.642;2023-02-01T11:25:49;3.22;;;1.45;;
56752;SDS011;42627;42.646;23.642;2023-02-01T11:28:14;5.63;;;2.30;;
56752;SDS011;42627;42.646;23.642;2023-02-01T11:30:18;4.53;;;2.03;;
56752;SDS011;42627;42.646;23.642;2023-02-01T11:32:25;3.92;;;1.50;;
56752;SDS011;42627;42.646;23.642;2023-02-01T11:34:33;2.95;;;1.35;;
56752;SDS011;42627;42.646;23.642;2023-02-01T11:36:36;2.83;;;1.40;;
56752;SDS011;42627;42.646;23.642;2023-02-01T11:38:37;6.07;;;1.83;;
56752;SDS011;42627;42.646;23.642;2023-02-01T11:40:41;3.80;;;1.40;;
56752;SDS011;42627;42.646;23.642;2023-02-01T11:44:51;2.15;;;0.80;;
56752;SDS011;42627;42.646;23.642;2023-02-01T11:47:21;4.15;;;1.58;;
56752;SDS011;42627;42.646;23.642;2023-02-01T11:49:23;3.78;;;1.20;;
56752;SDS011;42627;42.646;23.642;2023-02-01T12:00:26;1.30;;;1.08;;
56752;SDS011;42627;42.646;23.642;2023-02-01T12:07:03;3.92;;;1.23;;
56752;SDS011;42627;42.646;23.642;2023-02-01T12:09:09;3.10;;;1.13;;
56752;SDS011;42627;42.646;23.642;2023-02-01T12:36:53;4.00;;;1.42;;
56752;SDS011;42627;42.646;23.642;2023-02-01T12:46:38;2.72;;;1.20;;
56752;SDS011;42627;42.646;23.642;2023-02-01T12:48:57;2.28;;;0.98;;
56752;SDS011;42627;42.646;23.642;2023-02-01T12:51:04;4.07;;;2.35;;
56752;SDS011;42627;42.646;23.642;2023-02-01T12:53:12;2.88;;;1.20;;
56752;SDS011;42627;42.646;23.642;2023-02-01T12:55:23;1.45;;;0.95;;
56752;SDS011;42627;42.646;23.642;2023-02-01T12:57:26;3.63;;;1.42;;
56752;SDS011;42627;42.646;23.642;2023-02-01T13:07:14;1.98;;;1.50;;
56752;SDS011;42627;42.646;23.642;2023-02-01T13:11:20;1.45;;;0.93;;
56752;SDS011;42627;42.646;23.642;2023-02-01T13:13:26;1.65;;;0.75;;
56752;SDS011;42627;42.646;23.642;2023-02-01T13:18:34;1.00;;;0.82;;
56752;SDS011;42627;42.646;23.642;2023-02-01T13:20:47;1.70;;;1.25;;
56752;SDS011;42627;42.646;23.642;2023-02-01T13:22:54;1.77;;;0.82;;
56752;SDS011;42627;42.646;23.642;2023-02-01T13:24:59;1.95;;;1.25;;
56752;SDS011;42627;42.646;23.642;2023-02-01T13:27:01;1.70;;;1.20;;
56752;SDS011;42627;42.646;23.642;2023-02-01T13:29:03;1.88;;;0.98;;
56752;SDS011;42627;42.646;23.642;2023-02-01T13:31:51;1.92;;;1.10;;
56752;SDS011;42627;42.646;23.642;2023-02-01T13:33:45;2.92;;;1.00;;
56752;SDS011;42627;42.646;23.642;2023-02-01T13:38:08;0.95;;;0.57;;
56752;SDS011;42627;42.646;23.642;2023-02-01T13:42:19;1.73;;;0.88;;
56752;SDS011;42627;42.646;23.642;2023-02-01T13:44:29;1.58;;;1.10;;
56752;SDS011;42627;42.646;23.642;2023-02-01T13:46:59;3.47;;;1.17;;
56752;SDS011;42627;42.646;23.642;2023-02-01T13:49:04;3.47;;;1.23;;
56752;SDS011;42627;42.646;23.642;2023-02-01T13:51:05;2.15;;;1.13;;
56752;SDS011;42627;42.646;23.642;2023-02-01T13:59:51;3.25;;;1.60;;
56752;SDS011;42627;42.646;23.642;2023-02-01T14:01:57;3.88;;;1.35;;
56752;SDS011;42627;42.646;23.642;2023-02-01T14:06:42;10.13;;;3.30;;
56752;SDS011;42627;42.646;23.642;2023-02-01T14:08:46;5.38;;;2.63;;
56752;SDS011;42627;42.646;23.642;2023-02-01T14:11:06;9.93;;;3.47;;
56752;SDS011;42627;42.646;23.642;2023-02-01T14:15:53;5.90;;;2.70;;
56752;SDS011;42627;42.646;23.642;2023-02-01T14:20:42;4.22;;;2.40;;
56752;SDS011;42627;42.646;23.642;2023-02-01T14:22:45;4.03;;;1.83;;
56752;SDS011;42627;42.646;23.642;2023-02-01T14:24:50;5.82;;;2.53;;
56752;SDS011;42627;42.646;23.642;2023-02-01T14:26:54;8.90;;;3.80;;
56752;SDS011;42627;42.646;23.642;2023-02-01T14:28:58;10.73;;;4.45;;
56752;SDS011;42627;42.646;23.642;2023-02-01T14:30:59;7.20;;;2.83;;
56752;SDS011;42627;42.646;23.642;2023-02-01T14:33:21;5.03;;;2.40;;
56752;SDS011;42627;42.646;23.642;2023-02-01T14:35:26;6.93;;;3.00;;
56752;SDS011;42627;42.646;23.642;2023-02-01T14:37:29;6.25;;;3.13;;
56752;SDS011;42627;42.646;23.642;2023-02-01T14:39:35;4.68;;;2.20;;